createdAt,value
2022-09-07T00:00:36.386Z,962.51
2022-09-07T00:00:52.436Z,962.51
2022-09-07T00:01:23.445Z,962.41
2022-09-07T00:01:54.448Z,962.41
2022-09-07T00:02:25.427Z,962.21
2022-09-07T00:02:56.574Z,962.21
2022-09-07T00:03:27.647Z,962.21
2022-09-07T00:03:59.468Z,962.21
2022-09-07T00:04:29.469Z,962.41
2022-09-07T00:05:00.457Z,962.41
2022-09-07T00:05:31.424Z,962.41
2022-09-07T00:06:02.567Z,962.41
2022-09-07T00:06:33.452Z,962.41
2022-09-07T00:07:04.480Z,962.41
2022-09-07T00:07:35.550Z,962.41
2022-09-07T00:08:06.521Z,962.31
2022-09-07T00:08:37.436Z,962.31
2022-09-07T00:09:09.462Z,962.41
2022-09-07T00:09:39.437Z,962.41
2022-09-07T00:10:10.468Z,962.51
2022-09-07T00:10:41.448Z,962.51
2022-09-07T00:11:12.448Z,962.41
2022-09-07T00:11:43.413Z,962.41
2022-09-07T00:12:14.547Z,962.31
2022-09-07T00:12:45.476Z,962.31
2022-09-07T00:13:16.429Z,962.21
2022-09-07T00:13:47.508Z,962.21
2022-09-07T00:14:19.430Z,962.31
2022-09-07T00:14:49.426Z,962.31
2022-09-07T00:15:32.772Z,962.41
2022-09-07T00:15:51.591Z,962.41
2022-09-07T00:16:22.480Z,962.31
2022-09-07T00:16:53.435Z,962.31
2022-09-07T00:17:24.435Z,962.41
2022-09-07T00:17:55.419Z,962.41
2022-09-07T00:18:26.499Z,962.41
2022-09-07T00:18:57.445Z,962.41
2022-09-07T00:19:29.478Z,962.41
2022-09-07T00:19:59.405Z,962.41
2022-09-07T00:20:30.451Z,962.21
2022-09-07T00:21:01.494Z,962.21
2022-09-07T00:21:32.506Z,962.31
2022-09-07T00:22:03.475Z,962.31
2022-09-07T00:22:34.434Z,962.31
2022-09-07T00:23:05.471Z,962.21
2022-09-07T00:23:36.449Z,962.21
2022-09-07T00:24:07.451Z,962.41
2022-09-07T00:24:39.474Z,962.41
2022-09-07T00:25:09.495Z,962.41
2022-09-07T00:25:40.465Z,962.41
2022-09-07T00:26:11.426Z,962.21
2022-09-07T00:26:42.434Z,962.21
2022-09-07T00:27:13.481Z,962.31
2022-09-07T00:27:44.473Z,962.31
2022-09-07T00:28:15.437Z,962.41
2022-09-07T00:28:46.495Z,962.41
2022-09-07T00:29:17.442Z,962.41
2022-09-07T00:29:49.418Z,962.41
2022-09-07T00:30:31.780Z,962.31
2022-09-07T00:30:50.427Z,962.31
2022-09-07T00:31:21.510Z,962.31
2022-09-07T00:31:52.475Z,962.31
2022-09-07T00:32:23.441Z,962.41
2022-09-07T00:32:54.436Z,962.41
2022-09-07T00:33:25.432Z,962.61
2022-09-07T00:33:56.403Z,962.61
2022-09-07T00:34:27.460Z,962.21
2022-09-07T00:34:59.418Z,962.21
2022-09-07T00:35:29.434Z,962.04
2022-09-07T00:36:00.483Z,962.04
2022-09-07T00:36:31.467Z,962.21
2022-09-07T00:37:02.603Z,962.31
2022-09-07T00:37:33.473Z,962.31
2022-09-07T00:38:04.471Z,962.41
2022-09-07T00:38:35.439Z,962.41
2022-09-07T00:39:06.485Z,962.21
2022-09-07T00:39:37.488Z,962.21
2022-09-07T00:40:09.485Z,962.31
2022-09-07T00:40:39.559Z,962.31
2022-09-07T00:41:10.456Z,962.31
2022-09-07T00:41:41.450Z,962.31
2022-09-07T00:42:12.447Z,962.41
2022-09-07T00:42:43.454Z,962.41
2022-09-07T00:43:14.458Z,962.14
2022-09-07T00:43:45.432Z,962.14
2022-09-07T00:44:16.421Z,962.04
2022-09-07T00:44:47.428Z,962.04
2022-09-07T00:45:31.787Z,962.41
2022-09-07T00:45:49.475Z,962.41
2022-09-07T00:46:20.527Z,962.14
2022-09-07T00:46:51.515Z,962.14
2022-09-07T00:47:22.443Z,962.31
2022-09-07T00:47:53.442Z,962.31
2022-09-07T00:48:24.522Z,962.21
2022-09-07T00:48:55.411Z,962.21
2022-09-07T00:49:26.633Z,962.21
2022-09-07T00:49:57.397Z,962.21
2022-09-07T00:50:29.505Z,962.31
2022-09-07T00:50:59.400Z,962.31
2022-09-07T00:51:30.391Z,962.41
2022-09-07T00:52:01.442Z,962.41
2022-09-07T00:52:32.489Z,962.31
2022-09-07T00:53:03.484Z,962.21
2022-09-07T00:53:34.427Z,962.21
2022-09-07T00:54:05.469Z,962.04
2022-09-07T00:54:36.527Z,962.04
2022-09-07T00:55:07.439Z,962.04
2022-09-07T00:55:39.466Z,962.04
2022-09-07T00:56:09.450Z,962.04
2022-09-07T00:56:40.457Z,962.04
2022-09-07T00:57:11.481Z,962.21
2022-09-07T00:57:42.444Z,962.21
2022-09-07T00:58:13.401Z,962.21
2022-09-07T00:58:44.463Z,962.21
2022-09-07T00:59:15.425Z,962.21
2022-09-07T00:59:46.412Z,962.21
2022-09-07T01:00:33.997Z,961.94
2022-09-07T01:00:49.404Z,961.94
2022-09-07T01:01:19.509Z,962.21
2022-09-07T01:01:50.635Z,962.21
2022-09-07T01:02:26.912Z,962.31
2022-09-07T01:02:52.666Z,962.31
2022-09-07T01:03:29.354Z,962.04
2022-09-07T01:03:58.208Z,962.04
2022-09-07T01:04:30.709Z,962.14
2022-09-07T01:04:56.576Z,962.14
2022-09-07T01:05:27.931Z,962.21
2022-09-07T01:05:59.727Z,962.21
2022-09-07T01:06:29.481Z,962.31
2022-09-07T01:07:00.523Z,962.31
2022-09-07T01:07:31.528Z,962.21
2022-09-07T01:08:02.649Z,962.21
2022-09-07T01:08:33.784Z,962.21
2022-09-07T01:09:04.676Z,962.31
2022-09-07T01:09:35.447Z,962.31
2022-09-07T01:10:06.529Z,962.31
2022-09-07T01:10:37.506Z,962.31
2022-09-07T01:11:09.469Z,962.31
2022-09-07T01:11:39.490Z,962.31
2022-09-07T01:12:10.493Z,962.31
2022-09-07T01:12:41.437Z,962.31
2022-09-07T01:13:12.494Z,962.31
2022-09-07T01:13:43.414Z,962.31
2022-09-07T01:14:14.550Z,962.31
2022-09-07T01:14:45.460Z,962.31
2022-09-07T01:15:28.832Z,962.21
2022-09-07T01:15:47.557Z,962.21
2022-09-07T01:16:19.447Z,962.21
2022-09-07T01:16:49.587Z,962.21
2022-09-07T01:17:20.411Z,962.41
2022-09-07T01:17:51.407Z,962.41
2022-09-07T01:18:22.469Z,962.21
2022-09-07T01:18:53.402Z,962.21
2022-09-07T01:19:24.552Z,962.14
2022-09-07T01:19:55.425Z,962.14
2022-09-07T01:20:26.762Z,962.14
2022-09-07T01:20:57.416Z,962.14
2022-09-07T01:21:29.507Z,962.14
2022-09-07T01:21:59.409Z,962.14
2022-09-07T01:22:30.445Z,962.14
2022-09-07T01:23:01.414Z,962.14
2022-09-07T01:23:32.500Z,962.04
2022-09-07T01:24:03.449Z,962.14
2022-09-07T01:24:34.465Z,962.14
2022-09-07T01:25:05.448Z,962.14
2022-09-07T01:25:36.429Z,962.14
2022-09-07T01:26:07.433Z,962.14
2022-09-07T01:26:39.421Z,962.14
2022-09-07T01:27:09.435Z,962.14
2022-09-07T01:27:40.447Z,962.14
2022-09-07T01:28:11.455Z,962.14
2022-09-07T01:28:42.429Z,962.14
2022-09-07T01:29:13.450Z,962.21
2022-09-07T01:29:44.519Z,962.21
2022-09-07T01:30:27.854Z,962.21
2022-09-07T01:30:46.531Z,962.21
2022-09-07T01:31:17.478Z,962.41
2022-09-07T01:31:49.419Z,962.41
2022-09-07T01:32:19.459Z,962.31
2022-09-07T01:32:50.404Z,962.31
2022-09-07T01:33:21.404Z,962.51
2022-09-07T01:33:52.424Z,962.51
2022-09-07T01:34:23.406Z,962.31
2022-09-07T01:34:54.412Z,962.31
2022-09-07T01:35:25.482Z,962.41
2022-09-07T01:35:56.444Z,962.41
2022-09-07T01:36:27.454Z,962.41
2022-09-07T01:36:59.453Z,962.41
2022-09-07T01:37:29.400Z,962.21
2022-09-07T01:38:00.498Z,962.21
2022-09-07T01:38:31.612Z,962.21
2022-09-07T01:39:02.530Z,962.31
2022-09-07T01:39:33.460Z,962.31
2022-09-07T01:40:04.499Z,962.21
2022-09-07T01:40:35.470Z,962.21
2022-09-07T01:41:06.413Z,962.31
2022-09-07T01:41:37.445Z,962.31
2022-09-07T01:42:09.426Z,962.31
2022-09-07T01:42:39.463Z,962.31
2022-09-07T01:43:10.449Z,962.51
2022-09-07T01:43:41.392Z,962.51
2022-09-07T01:44:12.434Z,962.41
2022-09-07T01:44:43.393Z,962.41
2022-09-07T01:45:26.856Z,962.41
2022-09-07T01:45:45.479Z,962.41
2022-09-07T01:46:16.426Z,962.21
2022-09-07T01:46:47.463Z,962.21
2022-09-07T01:47:19.458Z,962.31
2022-09-07T01:47:49.415Z,962.31
2022-09-07T01:48:20.419Z,962.51
2022-09-07T01:48:51.385Z,962.51
2022-09-07T01:49:22.393Z,962.31
2022-09-07T01:49:53.463Z,962.31
2022-09-07T01:50:24.510Z,962.31
2022-09-07T01:50:55.458Z,962.31
2022-09-07T01:51:26.427Z,962.14
2022-09-07T01:51:57.401Z,962.14
2022-09-07T01:52:29.410Z,962.31
2022-09-07T01:52:59.410Z,962.31
2022-09-07T01:53:30.413Z,962.41
2022-09-07T01:54:01.468Z,962.41
2022-09-07T01:54:32.423Z,962.04
2022-09-07T01:55:03.450Z,962.51
2022-09-07T01:55:34.415Z,962.51
2022-09-07T01:56:05.412Z,962.14
2022-09-07T01:56:36.420Z,962.14
2022-09-07T01:57:07.399Z,962.31
2022-09-07T01:57:39.451Z,962.31
2022-09-07T01:58:09.426Z,962.14
2022-09-07T01:58:40.437Z,962.14
2022-09-07T01:59:11.444Z,962.31
2022-09-07T01:59:42.542Z,962.31
2022-09-07T02:00:25.897Z,962.04
2022-09-07T02:00:44.493Z,962.04
2022-09-07T02:01:15.562Z,962.21
2022-09-07T02:01:46.470Z,962.21
2022-09-07T02:02:17.452Z,962.21
2022-09-07T02:02:49.438Z,962.21
2022-09-07T02:03:19.443Z,962.21
2022-09-07T02:03:50.443Z,962.21
2022-09-07T02:04:21.408Z,962.21
2022-09-07T02:04:52.426Z,962.21
2022-09-07T02:05:23.384Z,962.21
2022-09-07T02:05:54.388Z,962.21
2022-09-07T02:06:25.457Z,962.14
2022-09-07T02:06:56.398Z,962.14
2022-09-07T02:07:27.381Z,962.14
2022-09-07T02:07:59.397Z,962.14
2022-09-07T02:08:29.521Z,962.31
2022-09-07T02:09:00.457Z,962.31
2022-09-07T02:09:31.544Z,962.14
2022-09-07T02:10:02.656Z,962.31
2022-09-07T02:10:33.422Z,962.31
2022-09-07T02:11:04.460Z,962.21
2022-09-07T02:11:35.388Z,962.21
2022-09-07T02:12:06.393Z,962.31
2022-09-07T02:12:37.386Z,962.31
2022-09-07T02:13:09.465Z,962.14
2022-09-07T02:13:39.389Z,962.14
2022-09-07T02:14:10.447Z,962.21
2022-09-07T02:14:41.417Z,962.21
2022-09-07T02:15:24.761Z,962.21
2022-09-07T02:15:43.502Z,962.21
2022-09-07T02:16:14.452Z,962.14
2022-09-07T02:16:45.417Z,962.14
2022-09-07T02:17:16.411Z,962.14
2022-09-07T02:17:47.382Z,962.14
2022-09-07T02:18:19.398Z,962.31
2022-09-07T02:18:49.453Z,962.31
2022-09-07T02:19:20.431Z,962.41
2022-09-07T02:19:51.383Z,962.41
2022-09-07T02:20:22.424Z,962.21
2022-09-07T02:20:53.405Z,962.21
2022-09-07T02:21:24.382Z,962.21
2022-09-07T02:21:55.594Z,962.21
2022-09-07T02:22:26.399Z,962.31
2022-09-07T02:22:57.389Z,962.31
2022-09-07T02:23:29.434Z,962.04
2022-09-07T02:23:59.381Z,962.04
2022-09-07T02:24:30.446Z,962.14
2022-09-07T02:25:01.403Z,962.14
2022-09-07T02:25:32.411Z,962.31
2022-09-07T02:26:03.492Z,962.21
2022-09-07T02:26:34.423Z,962.21
2022-09-07T02:27:05.477Z,962.14
2022-09-07T02:27:36.384Z,962.14
2022-09-07T02:28:07.429Z,962.31
2022-09-07T02:28:39.406Z,962.31
2022-09-07T02:29:09.443Z,962.21
2022-09-07T02:29:40.428Z,962.21
2022-09-07T02:30:23.814Z,962.14
2022-09-07T02:30:42.470Z,962.14
2022-09-07T02:31:13.450Z,962.21
2022-09-07T02:31:44.409Z,962.21
2022-09-07T02:32:15.407Z,962.14
2022-09-07T02:32:46.382Z,962.14
2022-09-07T02:33:17.385Z,962.14
2022-09-07T02:33:49.435Z,962.14
2022-09-07T02:34:19.405Z,962.31
2022-09-07T02:34:50.395Z,962.31
2022-09-07T02:35:21.393Z,962.31
2022-09-07T02:35:52.407Z,962.31
2022-09-07T02:36:23.402Z,962.51
2022-09-07T02:36:54.425Z,962.51
2022-09-07T02:37:25.492Z,962.41
2022-09-07T02:37:56.384Z,962.41
2022-09-07T02:38:27.484Z,962.31
2022-09-07T02:38:59.373Z,962.31
2022-09-07T02:39:29.418Z,962.41
2022-09-07T02:40:00.531Z,962.41
2022-09-07T02:40:31.437Z,962.41
2022-09-07T02:41:02.523Z,962.41
2022-09-07T02:41:33.412Z,962.41
2022-09-07T02:42:04.429Z,962.51
2022-09-07T02:42:35.404Z,962.51
2022-09-07T02:43:06.393Z,962.31
2022-09-07T02:43:37.381Z,962.31
2022-09-07T02:44:09.431Z,962.41
2022-09-07T02:44:39.367Z,962.41
2022-09-07T02:45:22.791Z,962.41
2022-09-07T02:45:41.375Z,962.41
2022-09-07T02:46:12.463Z,962.41
2022-09-07T02:46:43.496Z,962.41
2022-09-07T02:47:14.384Z,962.41
2022-09-07T02:47:45.408Z,962.41
2022-09-07T02:48:16.370Z,962.31
2022-09-07T02:48:47.370Z,962.31
2022-09-07T02:49:19.394Z,962.41
2022-09-07T02:49:49.398Z,962.41
2022-09-07T02:50:20.388Z,962.41
2022-09-07T02:50:51.427Z,962.41
2022-09-07T02:51:22.391Z,962.51
2022-09-07T02:51:53.398Z,962.51
2022-09-07T02:52:24.380Z,962.41
2022-09-07T02:52:55.349Z,962.41
2022-09-07T02:53:26.400Z,962.41
2022-09-07T02:53:57.363Z,962.41
2022-09-07T02:54:29.366Z,962.51
2022-09-07T02:54:59.357Z,962.51
2022-09-07T02:55:30.369Z,962.21
2022-09-07T02:56:01.439Z,962.21
2022-09-07T02:56:32.362Z,962.21
2022-09-07T02:57:03.428Z,962.21
2022-09-07T02:57:34.377Z,962.21
2022-09-07T02:58:05.453Z,962.31
2022-09-07T02:58:36.362Z,962.31
2022-09-07T02:59:07.382Z,962.41
2022-09-07T02:59:39.374Z,962.41
2022-09-07T03:00:22.025Z,962.41
2022-09-07T03:00:40.357Z,962.41
2022-09-07T03:01:11.407Z,962.21
2022-09-07T03:01:42.599Z,962.21
2022-09-07T03:02:13.605Z,962.21
2022-09-07T03:02:44.504Z,962.21
2022-09-07T03:03:15.385Z,962.21
2022-09-07T03:03:46.362Z,962.21
2022-09-07T03:04:17.358Z,962.21
2022-09-07T03:04:49.421Z,962.21
2022-09-07T03:05:19.404Z,962.21
2022-09-07T03:05:50.409Z,962.21
2022-09-07T03:06:21.370Z,961.94
2022-09-07T03:06:52.439Z,961.94
2022-09-07T03:07:23.420Z,962.21
2022-09-07T03:07:54.403Z,962.21
2022-09-07T03:08:25.401Z,962.31
2022-09-07T03:08:56.359Z,962.31
2022-09-07T03:09:27.394Z,962.21
2022-09-07T03:09:59.365Z,962.21
2022-09-07T03:10:29.468Z,962.31
2022-09-07T03:11:00.481Z,962.31
2022-09-07T03:11:31.378Z,962.04
2022-09-07T03:12:02.508Z,962.31
2022-09-07T03:12:33.493Z,962.31
2022-09-07T03:13:04.416Z,962.04
2022-09-07T03:13:35.395Z,962.04
2022-09-07T03:14:06.456Z,962.04
2022-09-07T03:14:37.389Z,962.04
2022-09-07T03:15:21.760Z,962.31
2022-09-07T03:15:39.414Z,962.31
2022-09-07T03:16:10.419Z,962.21
2022-09-07T03:16:41.372Z,962.21
2022-09-07T03:17:12.438Z,962.14
2022-09-07T03:17:43.382Z,962.14
2022-09-07T03:18:14.410Z,962.14
2022-09-07T03:18:45.434Z,962.14
2022-09-07T03:19:16.416Z,962.31
2022-09-07T03:19:47.378Z,962.31
2022-09-07T03:20:19.383Z,962.14
2022-09-07T03:20:49.458Z,962.14
2022-09-07T03:21:20.383Z,962.14
2022-09-07T03:21:51.375Z,962.14
2022-09-07T03:22:22.363Z,962.21
2022-09-07T03:22:53.612Z,962.21
2022-09-07T03:23:24.490Z,962.14
2022-09-07T03:23:55.365Z,962.14
2022-09-07T03:24:26.443Z,962.14
2022-09-07T03:24:57.375Z,962.14
2022-09-07T03:25:29.357Z,962.41
2022-09-07T03:25:59.383Z,962.41
2022-09-07T03:26:30.372Z,962.14
2022-09-07T03:27:01.432Z,962.14
2022-09-07T03:27:32.366Z,962.31
2022-09-07T03:28:03.442Z,962.14
2022-09-07T03:28:34.422Z,962.14
2022-09-07T03:29:05.450Z,962.04
2022-09-07T03:29:40.164Z,962.04
2022-09-07T03:30:19.829Z,962.14
2022-09-07T03:30:39.421Z,962.14
2022-09-07T03:31:09.485Z,962.21
2022-09-07T03:31:40.371Z,962.21
2022-09-07T03:32:11.381Z,962.04
2022-09-07T03:32:42.367Z,962.04
2022-09-07T03:33:13.442Z,962.14
2022-09-07T03:33:44.371Z,962.14
2022-09-07T03:34:15.395Z,962.31
2022-09-07T03:34:46.382Z,962.31
2022-09-07T03:35:17.402Z,962.14
2022-09-07T03:35:49.368Z,962.14
2022-09-07T03:36:19.383Z,962.21
2022-09-07T03:36:50.366Z,962.21
2022-09-07T03:37:21.383Z,962.14
2022-09-07T03:37:52.381Z,962.14
2022-09-07T03:38:23.407Z,962.31
2022-09-07T03:38:54.393Z,962.31
2022-09-07T03:39:25.447Z,962.31
2022-09-07T03:39:56.595Z,962.31
2022-09-07T03:40:27.398Z,962.21
2022-09-07T03:40:59.366Z,962.21
2022-09-07T03:41:29.361Z,962.21
2022-09-07T03:42:00.389Z,962.21
2022-09-07T03:42:31.352Z,962.14
2022-09-07T03:43:02.646Z,962.04
2022-09-07T03:43:33.373Z,962.04
2022-09-07T03:44:04.373Z,962.21
2022-09-07T03:44:35.419Z,962.21
2022-09-07T03:45:18.720Z,962.14
2022-09-07T03:45:37.372Z,962.14
2022-09-07T03:46:09.474Z,962.14
2022-09-07T03:46:39.384Z,962.14
2022-09-07T03:47:10.375Z,962.14
2022-09-07T03:47:41.363Z,962.14
2022-09-07T03:48:12.400Z,961.94
2022-09-07T03:48:43.428Z,961.94
2022-09-07T03:49:14.384Z,961.94
2022-09-07T03:49:45.425Z,961.94
2022-09-07T03:50:16.393Z,961.94
2022-09-07T03:50:47.423Z,961.94
2022-09-07T03:51:19.358Z,962.14
2022-09-07T03:51:49.360Z,962.14
2022-09-07T03:52:20.395Z,962.14
2022-09-07T03:52:51.367Z,962.14
2022-09-07T03:53:22.349Z,962.31
2022-09-07T03:53:53.389Z,962.31
2022-09-07T03:54:24.349Z,962.21
2022-09-07T03:54:55.423Z,962.21
2022-09-07T03:55:26.431Z,962.04
2022-09-07T03:55:57.359Z,962.04
2022-09-07T03:56:29.362Z,962.31
2022-09-07T03:56:59.346Z,962.31
2022-09-07T03:57:30.387Z,962.14
2022-09-07T03:58:01.397Z,962.14
2022-09-07T03:58:32.502Z,962.21
2022-09-07T03:59:03.481Z,962.14
2022-09-07T03:59:34.368Z,962.14
2022-09-07T04:00:17.880Z,961.94
2022-09-07T04:00:36.385Z,961.94
2022-09-07T04:01:07.472Z,961.83
2022-09-07T04:01:39.442Z,961.83
2022-09-07T04:02:09.441Z,962.04
2022-09-07T04:02:40.588Z,962.04
2022-09-07T04:03:11.435Z,962.04
2022-09-07T04:03:42.378Z,962.04
2022-09-07T04:04:13.439Z,961.94
2022-09-07T04:04:44.353Z,961.94
2022-09-07T04:05:15.408Z,962.14
2022-09-07T04:05:46.392Z,962.14
2022-09-07T04:06:17.399Z,962.14
2022-09-07T04:06:49.362Z,962.14
2022-09-07T04:07:19.431Z,962.21
2022-09-07T04:07:50.434Z,962.21
2022-09-07T04:08:21.356Z,962.14
2022-09-07T04:08:52.367Z,962.14
2022-09-07T04:09:23.373Z,962.21
2022-09-07T04:09:54.415Z,962.21
2022-09-07T04:10:25.388Z,962.04
2022-09-07T04:10:56.373Z,962.04
2022-09-07T04:11:27.393Z,961.94
2022-09-07T04:11:59.397Z,961.94
2022-09-07T04:12:29.367Z,962.14
2022-09-07T04:13:00.428Z,962.14
2022-09-07T04:13:31.353Z,962.04
2022-09-07T04:14:02.471Z,962.14
2022-09-07T04:14:33.377Z,962.14
2022-09-07T04:15:16.742Z,961.94
2022-09-07T04:15:35.369Z,961.94
2022-09-07T04:16:06.384Z,962.31
2022-09-07T04:16:37.413Z,962.31
2022-09-07T04:17:09.403Z,962.31
2022-09-07T04:17:39.366Z,962.31
2022-09-07T04:18:10.389Z,962.21
2022-09-07T04:18:41.370Z,962.21
2022-09-07T04:19:12.344Z,962.04
2022-09-07T04:19:43.389Z,962.04
2022-09-07T04:20:14.416Z,962.04
2022-09-07T04:20:45.407Z,962.04
2022-09-07T04:21:16.364Z,961.94
2022-09-07T04:21:47.352Z,961.94
2022-09-07T04:22:19.363Z,961.94
2022-09-07T04:22:53.658Z,961.94
2022-09-07T04:23:20.370Z,961.94
2022-09-07T04:23:51.378Z,961.94
2022-09-07T04:24:22.381Z,962.04
2022-09-07T04:24:53.395Z,962.04
2022-09-07T04:25:24.419Z,962.04
2022-09-07T04:25:55.369Z,962.04
2022-09-07T04:26:26.347Z,961.94
2022-09-07T04:26:57.355Z,961.94
2022-09-07T04:27:29.408Z,962.14
2022-09-07T04:27:59.339Z,962.14
2022-09-07T04:28:30.470Z,962.04
2022-09-07T04:29:01.361Z,962.04
2022-09-07T04:29:32.369Z,962.04
2022-09-07T04:30:15.770Z,961.94
2022-09-07T04:30:34.403Z,961.94
2022-09-07T04:31:05.477Z,962.04
2022-09-07T04:31:36.353Z,962.04
2022-09-07T04:32:07.362Z,962.14
2022-09-07T04:32:39.449Z,962.14
2022-09-07T04:33:09.450Z,962.21
2022-09-07T04:33:40.353Z,962.21
2022-09-07T04:34:11.340Z,961.94
2022-09-07T04:34:42.416Z,961.94
2022-09-07T04:35:13.367Z,962.14
2022-09-07T04:35:44.360Z,962.14
2022-09-07T04:36:15.358Z,962.04
2022-09-07T04:36:46.406Z,962.04
2022-09-07T04:37:17.353Z,962.14
2022-09-07T04:37:49.342Z,962.14
2022-09-07T04:38:19.460Z,962.14
2022-09-07T04:38:50.441Z,962.14
2022-09-07T04:39:21.430Z,962.21
2022-09-07T04:39:52.462Z,962.21
2022-09-07T04:40:23.466Z,962.21
2022-09-07T04:40:54.544Z,962.21
2022-09-07T04:41:25.417Z,962.21
2022-09-07T04:41:56.444Z,962.21
2022-09-07T04:42:27.438Z,962.21
2022-09-07T04:42:59.420Z,962.21
2022-09-07T04:43:29.664Z,962.31
2022-09-07T04:44:00.501Z,962.31
2022-09-07T04:44:31.416Z,962.04
2022-09-07T04:45:14.976Z,962.14
2022-09-07T04:45:33.429Z,962.14
2022-09-07T04:46:04.516Z,961.94
2022-09-07T04:46:35.495Z,961.94
2022-09-07T04:47:06.462Z,962.14
2022-09-07T04:47:37.577Z,962.14
2022-09-07T04:48:09.470Z,962.31
2022-09-07T04:48:39.452Z,962.31
2022-09-07T04:49:10.438Z,961.83
2022-09-07T04:49:41.469Z,961.83
2022-09-07T04:50:12.420Z,962.21
2022-09-07T04:50:43.413Z,962.21
2022-09-07T04:51:14.499Z,962.31
2022-09-07T04:51:45.438Z,962.31
2022-09-07T04:52:16.415Z,962.04
2022-09-07T04:52:47.399Z,962.04
2022-09-07T04:53:19.435Z,962.21
2022-09-07T04:53:49.415Z,962.21
2022-09-07T04:54:20.471Z,962.14
2022-09-07T04:54:51.420Z,962.14
2022-09-07T04:55:22.436Z,962.04
2022-09-07T04:55:53.405Z,962.04
2022-09-07T04:56:24.457Z,962.21
2022-09-07T04:56:55.417Z,962.21
2022-09-07T04:57:26.422Z,962.14
2022-09-07T04:57:57.417Z,962.14
2022-09-07T04:58:29.719Z,962.14
2022-09-07T04:58:59.401Z,962.14
2022-09-07T04:59:30.424Z,962.14
2022-09-07T05:00:13.928Z,962.14
2022-09-07T05:00:32.501Z,962.14
2022-09-07T05:01:03.487Z,962.41
2022-09-07T05:01:34.605Z,962.41
2022-09-07T05:02:05.512Z,962.31
2022-09-07T05:02:36.458Z,962.31
2022-09-07T05:03:07.475Z,962.21
2022-09-07T05:03:39.452Z,962.21
2022-09-07T05:04:09.483Z,962.41
2022-09-07T05:04:40.411Z,962.41
2022-09-07T05:05:11.498Z,962.14
2022-09-07T05:05:42.429Z,962.14
2022-09-07T05:06:13.464Z,962.31
2022-09-07T05:06:44.545Z,962.31
2022-09-07T05:07:15.455Z,962.21
2022-09-07T05:07:46.437Z,962.21
2022-09-07T05:08:17.428Z,962.21
2022-09-07T05:08:49.394Z,962.21
2022-09-07T05:09:19.409Z,962.51
2022-09-07T05:09:50.446Z,962.51
2022-09-07T05:10:21.540Z,962.41
2022-09-07T05:10:52.419Z,962.41
2022-09-07T05:11:27.777Z,962.41
2022-09-07T05:11:54.478Z,962.41
2022-09-07T05:12:25.424Z,962.41
2022-09-07T05:12:56.407Z,962.41
2022-09-07T05:13:27.417Z,962.31
2022-09-07T05:13:59.409Z,962.31
2022-09-07T05:14:29.430Z,962.51
2022-09-07T05:15:12.962Z,962.51
2022-09-07T05:15:31.473Z,962.31
2022-09-07T05:16:02.519Z,962.41
2022-09-07T05:16:33.517Z,962.41
2022-09-07T05:17:04.427Z,962.61
2022-09-07T05:17:35.473Z,962.61
2022-09-07T05:18:06.481Z,962.21
2022-09-07T05:18:37.460Z,962.21
2022-09-07T05:19:09.445Z,962.51
2022-09-07T05:19:39.438Z,962.51
2022-09-07T05:20:10.516Z,962.51
2022-09-07T05:20:41.418Z,962.51
2022-09-07T05:21:12.375Z,962.41
2022-09-07T05:21:43.403Z,962.41
2022-09-07T05:22:14.459Z,962.51
2022-09-07T05:22:45.428Z,962.51
2022-09-07T05:23:16.433Z,962.61
2022-09-07T05:23:47.390Z,962.61
2022-09-07T05:24:19.411Z,962.51
2022-09-07T05:24:49.396Z,962.51
2022-09-07T05:25:20.414Z,962.61
2022-09-07T05:25:51.431Z,962.61
2022-09-07T05:26:22.408Z,962.61
2022-09-07T05:26:53.460Z,962.61
2022-09-07T05:27:24.451Z,962.61
2022-09-07T05:27:55.416Z,962.61
2022-09-07T05:28:26.400Z,962.51
2022-09-07T05:31:32.483Z,962.82
2022-09-07T05:32:03.479Z,962.92
2022-09-07T05:32:34.562Z,962.92
2022-09-07T05:33:05.544Z,962.82
2022-09-07T05:34:39.479Z,962.71
2022-09-07T05:35:09.521Z,962.51
2022-09-07T05:35:40.410Z,962.51
2022-09-07T05:36:11.413Z,962.61
2022-09-07T05:36:42.422Z,962.61
2022-09-07T05:37:13.409Z,962.61
2022-09-07T05:37:44.426Z,962.61
2022-09-07T05:38:15.492Z,962.61
2022-09-07T05:38:46.410Z,962.61
2022-09-07T05:39:17.382Z,962.71
2022-09-07T05:39:49.535Z,962.71
2022-09-07T05:40:19.449Z,962.71
2022-09-07T05:40:50.444Z,962.71
2022-09-07T05:41:21.458Z,962.71
2022-09-07T05:41:52.417Z,962.71
2022-09-07T05:42:23.394Z,962.61
2022-09-07T05:42:54.365Z,962.61
2022-09-07T05:43:25.363Z,962.82
2022-09-07T05:44:59.410Z,962.61
2022-09-07T05:45:41.819Z,962.82
2022-09-07T05:46:00.468Z,962.82
2022-09-07T05:46:31.458Z,962.61
2022-09-07T05:47:02.571Z,962.82
2022-09-07T05:47:33.413Z,962.82
2022-09-07T05:48:04.451Z,962.82
2022-09-07T05:48:35.491Z,962.82
2022-09-07T05:49:06.450Z,962.61
2022-09-07T05:49:37.416Z,962.61
2022-09-07T05:50:09.526Z,962.82
2022-09-07T05:50:39.446Z,962.82
2022-09-07T05:51:10.534Z,962.71
2022-09-07T05:51:41.377Z,962.71
2022-09-07T05:52:12.402Z,962.71
2022-09-07T05:52:43.453Z,962.71
2022-09-07T05:53:14.413Z,962.71
2022-09-07T05:53:45.443Z,962.71
2022-09-07T05:54:16.409Z,962.82
2022-09-07T05:54:47.435Z,962.82
2022-09-07T05:55:29.835Z,962.92
2022-09-07T05:55:49.419Z,962.92
2022-09-07T05:56:20.457Z,962.82
2022-09-07T05:56:51.394Z,962.82
2022-09-07T05:57:22.418Z,962.82
2022-09-07T05:57:53.424Z,962.82
2022-09-07T05:58:24.473Z,962.71
2022-09-07T05:58:55.454Z,962.71
2022-09-07T05:59:26.421Z,962.61
2022-09-07T05:59:57.415Z,962.61
2022-09-07T06:00:41.771Z,962.92
2022-09-07T06:00:59.409Z,962.92
2022-09-07T06:01:30.435Z,962.71
2022-09-07T06:02:01.568Z,962.71
2022-09-07T06:02:34.503Z,962.92
2022-09-07T06:03:03.584Z,962.61
2022-09-07T06:03:34.445Z,962.61
2022-09-07T06:04:05.453Z,962.61
2022-09-07T06:04:36.425Z,962.61
2022-09-07T06:05:07.439Z,962.71
2022-09-07T06:05:39.397Z,962.71
2022-09-07T06:06:09.404Z,962.82
2022-09-07T06:06:40.403Z,962.82
2022-09-07T06:07:21.568Z,962.61
2022-09-07T06:07:42.441Z,962.61
2022-09-07T06:08:13.392Z,962.82
2022-09-07T06:08:44.400Z,962.82
2022-09-07T06:09:15.361Z,962.92
2022-09-07T06:10:49.467Z,962.92
2022-09-07T06:11:19.407Z,963.12
2022-09-07T06:11:50.478Z,963.12
2022-09-07T06:12:21.392Z,962.92
2022-09-07T06:12:52.424Z,962.92
2022-09-07T06:13:23.401Z,962.92
2022-09-07T06:13:54.420Z,962.92
2022-09-07T06:14:25.400Z,963.02
2022-09-07T06:14:56.451Z,963.02
2022-09-07T06:15:39.780Z,963.12
2022-09-07T06:15:59.486Z,963.12
2022-09-07T06:16:29.512Z,963.02
2022-09-07T06:17:00.611Z,963.02
2022-09-07T06:17:31.601Z,962.71
2022-09-07T06:18:02.600Z,962.92
2022-09-07T06:18:33.484Z,962.92
2022-09-07T06:19:04.508Z,962.92
2022-09-07T06:19:35.504Z,962.92
2022-09-07T06:20:06.617Z,962.82
2022-09-07T06:20:37.506Z,962.82
2022-09-07T06:21:09.630Z,963.02
2022-09-07T06:21:39.414Z,963.02
2022-09-07T06:22:10.414Z,962.92
2022-09-07T06:22:41.402Z,962.92
2022-09-07T06:23:12.392Z,963.02
2022-09-07T06:23:43.425Z,963.02
2022-09-07T06:24:14.429Z,963.02
2022-09-07T06:24:45.454Z,963.02
2022-09-07T06:25:16.393Z,963.12
2022-09-07T06:25:47.334Z,963.12
2022-09-07T06:26:19.401Z,963.12
2022-09-07T06:26:49.415Z,963.12
2022-09-07T06:27:20.396Z,963.12
2022-09-07T06:27:51.416Z,963.12
2022-09-07T06:28:22.389Z,962.92
2022-09-07T06:28:57.621Z,962.92
2022-09-07T06:29:24.433Z,963.02
2022-09-07T06:29:55.483Z,963.02
2022-09-07T06:30:38.748Z,963.12
2022-09-07T06:30:57.380Z,963.12
2022-09-07T06:31:29.563Z,963.22
2022-09-07T06:33:01.445Z,963.02
2022-09-07T06:33:32.595Z,963.12